createdAt,value
2022-08-05T00:00:50.657Z,19.74
2022-08-05T00:03:22.035Z,19.65
2022-08-05T00:06:05.523Z,19.57
2022-08-05T00:08:44.934Z,19.53
2022-08-05T00:11:20.612Z,19.44
2022-08-05T00:14:02.324Z,19.42
2022-08-05T00:16:36.563Z,19.35
2022-08-05T00:19:33.352Z,19.31
2022-08-05T00:22:05.386Z,19.26
2022-08-05T00:24:37.746Z,19.25
2022-08-05T00:27:16.688Z,19.11
2022-08-05T00:29:48.278Z,19.18
2022-08-05T00:32:20.495Z,19.15
2022-08-05T00:35:06.862Z,19.12
2022-08-05T00:37:52.675Z,19.05
2022-08-05T00:40:29.211Z,18.99
2022-08-05T00:43:02.720Z,18.92
2022-08-05T00:45:43.827Z,19.03
2022-08-05T00:48:18.053Z,19.05
2022-08-05T00:51:09.027Z,19.12
2022-08-05T00:54:02.690Z,19.11
2022-08-05T00:56:34.487Z,19.19
2022-08-05T00:59:06.999Z,19.17
2022-08-05T01:01:48.135Z,19.20
2022-08-05T01:04:26.780Z,19.20
2022-08-05T01:07:01.168Z,19.25
2022-08-05T01:09:36.573Z,19.26
2022-08-05T01:12:18.696Z,19.25
2022-08-05T01:14:53.266Z,19.26
2022-08-05T01:17:53.644Z,19.27
2022-08-05T01:20:30.117Z,19.26
2022-08-05T01:23:23.362Z,19.27
2022-08-05T01:26:18.752Z,19.28
2022-08-05T01:29:13.374Z,19.27
2022-08-05T01:31:49.658Z,19.22
2022-08-05T01:34:39.182Z,19.28
2022-08-05T01:37:24.440Z,19.30
2022-08-05T01:39:59.017Z,19.32
2022-08-05T01:42:32.749Z,19.30
2022-08-05T01:45:08.256Z,19.26
2022-08-05T01:47:43.190Z,19.25
2022-08-05T01:50:28.653Z,19.24
2022-08-05T01:53:04.376Z,19.21
2022-08-05T01:55:37.156Z,19.19
2022-08-05T01:58:15.469Z,19.17
2022-08-05T02:00:50.822Z,19.11
2022-08-05T02:03:33.982Z,19.16
2022-08-05T02:06:37.008Z,19.18
2022-08-05T02:08:59.964Z,19.18
2022-08-05T02:11:47.832Z,19.18
2022-08-05T02:14:32.352Z,19.16
2022-08-05T02:18:27.937Z,19.21
2022-08-05T02:20:14.119Z,19.26
2022-08-05T02:23:01.368Z,19.27
2022-08-05T02:25:49.951Z,19.24
2022-08-05T02:28:29.188Z,19.09
2022-08-05T02:31:07.846Z,18.85
2022-08-05T02:33:57.368Z,18.69
2022-08-05T02:36:32.398Z,18.54
2022-08-05T02:39:08.823Z,18.44
2022-08-05T02:41:57.491Z,18.33
2022-08-05T02:44:34.241Z,18.19
2022-08-05T02:47:08.848Z,18.08
2022-08-05T02:49:44.369Z,18.00
2022-08-05T02:52:29.354Z,17.91
2022-08-05T02:55:05.627Z,17.78
2022-08-05T02:58:11.605Z,17.73
2022-08-05T03:00:33.269Z,17.70
2022-08-05T03:03:07.672Z,17.64
2022-08-05T03:06:57.024Z,17.59
2022-08-05T03:08:35.905Z,17.57
2022-08-05T03:11:54.886Z,17.56
2022-08-05T03:14:16.750Z,17.45
2022-08-05T03:16:48.796Z,17.41
2022-08-05T03:19:34.300Z,17.30
2022-08-05T03:22:16.409Z,17.31
2022-08-05T03:24:52.233Z,17.29
2022-08-05T03:27:29.460Z,17.29
2022-08-05T03:30:08.670Z,17.28
2022-08-05T03:32:41.107Z,17.25
2022-08-05T03:35:13.448Z,17.25
2022-08-05T03:37:45.997Z,17.23
2022-08-05T03:40:24.233Z,17.21
2022-08-05T03:43:59.273Z,17.19
2022-08-05T03:45:57.188Z,17.16
2022-08-05T03:48:30.924Z,17.20
2022-08-05T03:52:38.009Z,17.22
2022-08-05T03:54:58.873Z,17.23
2022-08-05T03:57:16.786Z,17.22
2022-08-05T03:59:55.733Z,17.30
2022-08-05T04:02:38.415Z,17.32
2022-08-05T04:05:17.613Z,17.31
2022-08-05T04:07:58.042Z,17.32
2022-08-05T04:10:37.596Z,17.33
2022-08-05T04:13:09.756Z,17.33
2022-08-05T04:16:03.331Z,17.41
2022-08-05T04:18:34.384Z,17.40
2022-08-05T04:21:07.210Z,17.43
2022-08-05T04:24:05.738Z,17.43
2022-08-05T04:26:34.770Z,17.43
2022-08-05T04:29:07.357Z,17.44
2022-08-05T04:31:39.523Z,17.45
2022-08-05T04:34:19.650Z,17.49
2022-08-05T04:37:03.464Z,17.53
2022-08-05T04:39:35.232Z,17.57
2022-08-05T04:42:07.474Z,17.53
2022-08-05T04:44:40.492Z,17.45
2022-08-05T04:47:15.765Z,17.38
2022-08-05T04:50:02.721Z,17.42
2022-08-05T04:52:41.047Z,17.38
2022-08-05T04:55:14.279Z,17.32
2022-08-05T04:57:47.517Z,17.30
2022-08-05T05:00:23.633Z,17.35
2022-08-05T05:02:56.603Z,17.36
2022-08-05T05:05:30.942Z,17.37
2022-08-05T05:08:14.114Z,17.40
2022-08-05T05:10:57.789Z,17.48
2022-08-05T05:13:32.337Z,17.58
2022-08-05T05:16:16.034Z,17.70
2022-08-05T05:19:16.477Z,17.81
2022-08-05T05:21:42.721Z,17.94
2022-08-05T05:24:17.962Z,17.98
2022-08-05T05:26:51.830Z,18.09
2022-08-05T05:29:23.362Z,18.13
2022-08-05T05:31:55.434Z,18.23
2022-08-05T05:34:27.523Z,18.23
2022-08-05T05:36:58.896Z,18.23
2022-08-05T05:39:34.388Z,18.19
2022-08-05T05:42:06.622Z,18.16
2022-08-05T05:44:43.148Z,18.12
2022-08-05T05:47:21.707Z,18.07
2022-08-05T05:49:56.900Z,18.02
2022-08-05T05:52:38.055Z,18.02
2022-08-05T05:55:14.640Z,18.02
2022-08-05T05:57:52.199Z,18.05
2022-08-05T06:00:27.762Z,18.07
2022-08-05T06:03:03.395Z,18.16
2022-08-05T06:05:55.524Z,18.26
2022-08-05T06:08:32.714Z,18.35
2022-08-05T06:11:04.409Z,18.44
2022-08-05T06:13:40.830Z,18.52
2022-08-05T06:16:30.074Z,18.55
2022-08-05T06:19:05.864Z,18.57
2022-08-05T06:21:42.912Z,18.58
2022-08-05T06:24:25.663Z,18.63
2022-08-05T06:26:57.353Z,18.71
2022-08-05T06:29:49.348Z,18.69
2022-08-05T06:32:26.165Z,18.84
2022-08-05T06:35:00.331Z,18.84
2022-08-05T06:37:57.055Z,19.10
2022-08-05T06:40:31.142Z,19.58
2022-08-05T06:43:03.931Z,19.86
2022-08-05T06:46:02.899Z,19.90
2022-08-05T06:48:55.314Z,20.04
2022-08-05T06:51:23.792Z,20.00
2022-08-05T06:54:02.034Z,19.81
2022-08-05T06:56:34.946Z,19.70
2022-08-05T06:59:09.384Z,19.57
2022-08-05T07:01:42.422Z,19.50
2022-08-05T07:04:14.275Z,19.40
2022-08-05T07:06:45.732Z,19.36
2022-08-05T07:09:21.779Z,19.33
2022-08-05T07:11:56.430Z,19.28
2022-08-05T07:14:50.632Z,19.21
2022-08-05T07:18:08.207Z,19.18
2022-08-05T07:20:32.985Z,19.10
2022-08-05T07:23:05.453Z,19.15
2022-08-05T07:25:56.318Z,19.16
2022-08-05T07:28:28.118Z,19.10
2022-08-05T07:30:59.471Z,19.08
2022-08-05T07:33:36.707Z,18.95
2022-08-05T07:36:20.869Z,18.83
2022-08-05T07:38:54.821Z,18.63
2022-08-05T07:42:07.943Z,18.42
2022-08-05T07:44:18.701Z,18.28
2022-08-05T07:46:50.706Z,18.23
2022-08-05T07:49:22.898Z,18.18
2022-08-05T07:51:55.175Z,18.12
2022-08-05T07:54:33.371Z,18.10
2022-08-05T07:57:13.789Z,18.00
2022-08-05T07:59:49.609Z,17.97
2022-08-05T08:02:31.459Z,18.02
2022-08-05T08:05:20.081Z,18.06
2022-08-05T08:07:59.698Z,18.12
2022-08-05T08:10:31.933Z,18.09
2022-08-05T08:13:04.422Z,18.05
2022-08-05T08:16:34.308Z,18.08
2022-08-05T08:18:27.945Z,18.15
2022-08-05T08:21:03.349Z,18.30
2022-08-05T08:24:01.239Z,18.49
2022-08-05T08:26:29.728Z,18.66
2022-08-05T08:29:22.266Z,18.71
2022-08-05T08:31:53.857Z,18.71
2022-08-05T08:34:30.843Z,18.74
2022-08-05T08:37:05.550Z,18.80
2022-08-05T08:39:37.918Z,18.78
2022-08-05T08:42:34.198Z,18.74
2022-08-05T08:45:19.347Z,18.77
2022-08-05T08:48:07.338Z,18.78
2022-08-05T08:51:22.492Z,18.83
2022-08-05T08:53:45.432Z,18.91
2022-08-05T08:56:17.304Z,19.00
2022-08-05T08:58:49.664Z,19.02
2022-08-05T09:01:22.031Z,19.07
2022-08-05T09:03:57.505Z,19.07
2022-08-05T09:06:31.476Z,19.04
2022-08-05T09:09:03.612Z,19.00
2022-08-05T09:11:52.204Z,18.89
2022-08-05T09:14:57.544Z,18.80
2022-08-05T09:17:42.256Z,18.73
2022-08-05T09:20:09.544Z,18.73
2022-08-05T09:23:05.455Z,18.74
2022-08-05T09:25:59.896Z,18.66
2022-08-05T09:28:37.429Z,18.54
2022-08-05T09:31:22.068Z,18.51
2022-08-05T09:34:05.248Z,18.44
2022-08-05T09:36:45.796Z,18.42
2022-08-05T09:39:41.200Z,18.43
2022-08-05T09:42:24.118Z,18.41
2022-08-05T09:46:04.611Z,18.35
2022-08-05T09:47:57.926Z,18.32
2022-08-05T09:50:44.086Z,18.27
2022-08-05T09:53:25.746Z,18.19
2022-08-05T09:56:04.046Z,18.27
2022-08-05T09:58:59.413Z,18.34
2022-08-05T10:01:36.784Z,18.32
2022-08-05T10:04:13.673Z,18.30
2022-08-05T10:06:59.361Z,18.32
2022-08-05T10:09:44.914Z,18.32
2022-08-05T10:12:30.220Z,18.34
2022-08-05T10:15:34.188Z,18.29
2022-08-05T10:18:11.582Z,18.23
2022-08-05T10:20:57.623Z,18.18
2022-08-05T10:23:55.801Z,18.16
2022-08-05T10:26:24.229Z,18.07
2022-08-05T10:29:03.236Z,17.99
2022-08-05T10:32:52.563Z,17.93
2022-08-05T10:34:31.158Z,17.95
2022-08-05T10:37:02.802Z,17.89
2022-08-05T10:40:03.235Z,17.91
2022-08-05T10:42:36.554Z,18.06
2022-08-05T10:45:23.556Z,18.06
2022-08-05T10:48:35.102Z,18.08
2022-08-05T10:51:22.275Z,18.09
2022-08-05T10:53:58.423Z,18.09
2022-08-05T10:56:45.134Z,18.14
2022-08-05T11:00:04.399Z,18.20
2022-08-05T11:02:14.174Z,18.21
2022-08-05T11:04:48.414Z,18.19
2022-08-05T11:07:33.074Z,18.18
2022-08-05T11:10:22.514Z,18.14
2022-08-05T11:13:01.269Z,18.04
2022-08-05T11:15:44.030Z,17.93
2022-08-05T11:18:34.810Z,17.83
2022-08-05T11:21:31.847Z,17.81
2022-08-05T11:24:30.149Z,17.85
2022-08-05T11:27:52.006Z,17.92
2022-08-05T11:30:30.862Z,17.90
2022-08-05T11:33:47.914Z,17.92
2022-08-05T11:36:42.872Z,17.86
2022-08-05T11:39:16.946Z,17.87
2022-08-05T11:42:02.066Z,17.89
2022-08-05T11:44:53.236Z,17.96
2022-08-05T11:47:49.511Z,18.10
2022-08-05T11:50:17.988Z,18.14
2022-08-05T11:52:52.027Z,18.30
2022-08-05T11:55:32.127Z,18.52
2022-08-05T11:58:09.968Z,18.77
2022-08-05T12:00:44.295Z,19.00
2022-08-05T12:03:23.746Z,19.22
2022-08-05T12:06:02.922Z,19.27
2022-08-05T12:08:40.585Z,19.44
2022-08-05T12:11:28.289Z,19.53
2022-08-05T12:14:11.433Z,19.78
2022-08-05T12:16:45.266Z,20.06
2022-08-05T12:20:25.630Z,20.40
2022-08-05T12:22:09.636Z,20.71
2022-08-05T12:24:49.591Z,20.76
2022-08-05T12:27:33.153Z,20.84
2022-08-05T12:30:15.543Z,20.97
2022-08-05T12:32:53.561Z,20.97
2022-08-05T12:35:39.545Z,20.84
2022-08-05T12:38:11.426Z,20.85
2022-08-05T12:40:46.569Z,21.01
2022-08-05T12:43:20.575Z,21.17
2022-08-05T12:45:56.670Z,21.36
2022-08-05T12:48:37.866Z,21.21
2022-08-05T12:52:10.495Z,21.36
2022-08-05T12:54:16.658Z,21.38
2022-08-05T12:56:57.297Z,21.20
2022-08-05T13:00:08.982Z,21.16
2022-08-05T13:02:36.160Z,21.31
2022-08-05T13:05:12.739Z,21.54
2022-08-05T13:08:02.447Z,21.86
2022-08-05T13:10:50.323Z,22.21
2022-08-05T13:14:04.638Z,22.62
2022-08-05T13:16:15.343Z,22.78
2022-08-05T13:18:52.921Z,22.76
2022-08-05T13:21:47.860Z,22.87
2022-08-05T13:24:36.214Z,22.92
2022-08-05T13:27:38.327Z,23.03
2022-08-05T13:30:35.145Z,23.02
2022-08-05T13:33:04.297Z,23.17
2022-08-05T13:35:47.362Z,23.22
2022-08-05T13:38:30.265Z,23.26
2022-08-05T13:41:03.635Z,23.25
2022-08-05T13:43:45.550Z,23.31
2022-08-05T13:49:18.775Z,23.09
2022-08-05T13:51:50.509Z,22.81
2022-08-05T13:54:26.331Z,22.68
2022-08-05T13:56:58.005Z,22.59
2022-08-05T13:59:30.731Z,22.55
2022-08-05T14:02:03.370Z,22.46
2022-08-05T14:04:55.075Z,22.36
2022-08-05T14:07:59.894Z,22.19
2022-08-05T14:10:28.802Z,22.05
2022-08-05T14:13:02.829Z,22.03
2022-08-05T14:16:05.084Z,21.96
2022-08-05T14:18:26.464Z,21.90
2022-08-05T14:20:57.802Z,21.84
2022-08-05T14:23:36.314Z,21.88
2022-08-05T14:26:08.022Z,21.96
2022-08-05T14:28:59.289Z,22.04
2022-08-05T14:32:02.750Z,21.97
2022-08-05T14:34:23.672Z,21.86
2022-08-05T14:36:55.160Z,21.81
2022-08-05T14:39:26.624Z,21.73
2022-08-05T14:42:19.539Z,21.77
2022-08-05T14:44:50.182Z,21.79
2022-08-05T14:48:02.448Z,21.83
2022-08-05T14:50:17.497Z,21.83
2022-08-05T14:52:53.498Z,21.86
2022-08-05T14:55:39.342Z,21.85
2022-08-05T14:58:13.788Z,21.90
2022-08-05T15:00:59.688Z,22.00
2022-08-05T15:03:33.909Z,22.12
2022-08-05T15:06:15.100Z,22.26
2022-08-05T15:08:59.868Z,22.43
2022-08-05T15:11:51.999Z,22.43
2022-08-05T15:14:35.601Z,22.38
2022-08-05T15:17:44.892Z,22.56
2022-08-05T15:20:17.082Z,22.68
2022-08-05T15:22:54.160Z,22.64
2022-08-05T15:25:51.331Z,22.74
2022-08-05T15:28:17.745Z,22.77
2022-08-05T15:30:52.950Z,22.81
2022-08-05T15:34:04.968Z,22.90
2022-08-05T15:36:17.773Z,22.78
2022-08-05T15:41:02.071Z,22.53
2022-08-05T15:41:56.387Z,22.28
2022-08-05T15:44:30.970Z,21.93
2022-08-05T15:47:03.597Z,21.61
2022-08-05T15:49:52.031Z,21.51
2022-08-05T15:52:29.585Z,21.59
2022-08-05T15:55:19.397Z,21.67
2022-08-05T15:57:56.506Z,21.48
2022-08-05T16:00:43.031Z,21.34
2022-08-05T16:03:19.770Z,21.35
2022-08-05T16:05:53.212Z,21.48
2022-08-05T16:08:30.681Z,21.59
2022-08-05T16:11:02.761Z,21.63
2022-08-05T16:13:36.401Z,21.63
2022-08-05T16:16:10.865Z,21.60
2022-08-05T16:18:51.786Z,21.64
2022-08-05T16:21:58.645Z,21.64
2022-08-05T16:24:41.265Z,21.48
2022-08-05T16:27:07.290Z,21.38
2022-08-05T16:29:38.830Z,21.28
2022-08-05T16:32:10.451Z,21.11
2022-08-05T16:34:42.666Z,21.00
2022-08-05T16:38:03.294Z,20.84
2022-08-05T16:40:13.334Z,20.70
2022-08-05T16:42:45.226Z,20.66
2022-08-05T16:46:05.136Z,20.58
2022-08-05T16:48:25.524Z,20.37
2022-08-05T16:51:09.937Z,20.20
2022-08-05T16:54:05.686Z,20.15
2022-08-05T16:56:35.356Z,19.95
2022-08-05T16:59:10.413Z,19.85
2022-08-05T17:01:53.884Z,19.77
2022-08-05T17:04:28.163Z,19.68
2022-08-05T17:07:03.225Z,19.62
2022-08-05T17:09:58.016Z,19.45
2022-08-05T17:12:51.236Z,19.50
2022-08-05T17:15:21.891Z,19.43
2022-08-05T17:17:54.972Z,19.39
2022-08-05T17:20:26.811Z,19.33
2022-08-05T17:22:58.791Z,19.23
2022-08-05T17:25:39.125Z,19.21
2022-08-05T17:28:15.470Z,19.13
2022-08-05T17:30:52.053Z,19.07
2022-08-05T17:33:23.855Z,19.00
2022-08-05T17:36:08.423Z,18.94
2022-08-05T17:38:42.153Z,18.88
2022-08-05T17:42:16.425Z,18.83
2022-08-05T17:44:05.626Z,18.78
2022-08-05T17:46:42.482Z,18.75
2022-08-05T17:49:14.507Z,18.72
2022-08-05T17:51:46.472Z,18.67
2022-08-05T17:54:23.362Z,18.63
2022-08-05T17:56:54.945Z,18.58
2022-08-05T17:59:30.245Z,18.46
2022-08-05T18:02:02.796Z,18.43
2022-08-05T18:04:53.394Z,18.37
2022-08-05T18:07:40.900Z,18.33
2022-08-05T18:10:20.545Z,18.28
2022-08-05T18:12:52.626Z,18.23
2022-08-05T18:15:26.987Z,18.19
2022-08-05T18:18:03.536Z,18.12
2022-08-05T18:20:37.680Z,18.01
2022-08-05T18:23:12.285Z,17.94
2022-08-05T18:25:45.239Z,17.85
2022-08-05T18:28:17.626Z,17.75
2022-08-05T18:30:53.354Z,17.68
2022-08-05T18:33:24.715Z,17.61
2022-08-05T18:36:03.729Z,17.52
2022-08-05T18:38:36.798Z,17.42
2022-08-05T18:41:57.469Z,17.35
2022-08-05T18:44:06.276Z,17.24
2022-08-05T18:46:37.958Z,17.15
2022-08-05T18:49:44.612Z,17.02
2022-08-05T18:52:32.945Z,16.93
2022-08-05T18:55:06.369Z,16.80
2022-08-05T18:57:50.368Z,16.74
2022-08-05T19:00:28.839Z,16.61
2022-08-05T19:03:01.477Z,16.58
2022-08-05T19:06:12.763Z,16.49
2022-08-05T19:08:30.620Z,16.37
2022-08-05T19:11:04.517Z,16.28
2022-08-05T19:13:36.928Z,16.23
2022-08-05T19:16:25.173Z,16.15
2022-08-05T19:19:00.571Z,16.10
2022-08-05T19:21:34.649Z,16.04
2022-08-05T19:24:12.584Z,15.98
2022-08-05T19:26:55.236Z,15.91
2022-08-05T19:29:35.764Z,15.83
2022-08-05T19:32:11.534Z,15.76
2022-08-05T19:34:54.555Z,15.65
2022-08-05T19:37:47.379Z,15.61
2022-08-05T19:40:18.532Z,15.60
2022-08-05T19:43:04.476Z,15.53
2022-08-05T19:45:37.175Z,15.52
2022-08-05T19:48:14.278Z,15.49
2022-08-05T19:50:46.094Z,15.44
2022-08-05T19:53:17.474Z,15.40
2022-08-05T19:56:14.276Z,15.29
2022-08-05T19:58:54.107Z,15.30
2022-08-05T20:01:28.310Z,15.26
2022-08-05T20:04:00.893Z,15.22
2022-08-05T20:06:37.584Z,15.19
2022-08-05T20:09:17.332Z,15.13
2022-08-05T20:11:48.887Z,15.10
2022-08-05T20:14:27.007Z,15.06
2022-08-05T20:16:59.153Z,15.02
2022-08-05T20:19:36.217Z,14.97
2022-08-05T20:22:09.524Z,14.89
2022-08-05T20:24:41.152Z,14.86
2022-08-05T20:27:13.356Z,14.83
2022-08-05T20:29:52.206Z,14.76
2022-08-05T20:32:29.424Z,14.67
2022-08-05T20:35:01.156Z,14.61
2022-08-05T20:38:05.637Z,14.62
2022-08-05T20:40:25.204Z,14.55
2022-08-05T20:43:00.115Z,14.49
2022-08-05T20:45:56.429Z,14.39
2022-08-05T20:48:23.296Z,14.32
2022-08-05T20:50:56.252Z,14.32
2022-08-05T20:53:37.025Z,14.28
2022-08-05T20:56:12.193Z,14.22
2022-08-05T20:58:43.569Z,14.19
2022-08-05T21:01:15.257Z,14.14
2022-08-05T21:03:48.136Z,14.11
2022-08-05T21:06:28.503Z,14.07
2022-08-05T21:09:01.186Z,14.04
2022-08-05T21:12:10.868Z,14.00
2022-08-05T21:14:26.602Z,13.96
2022-08-05T21:16:58.100Z,13.91
2022-08-05T21:19:29.551Z,13.89
2022-08-05T21:22:23.201Z,13.83
2022-08-05T21:24:55.083Z,13.82
2022-08-05T21:27:27.260Z,13.75
2022-08-05T21:29:58.943Z,13.70
2022-08-05T21:32:33.493Z,13.66
2022-08-05T21:35:08.816Z,13.59
2022-08-05T21:37:53.466Z,13.58
2022-08-05T21:40:25.327Z,13.54
2022-08-05T21:42:59.189Z,13.50
2022-08-05T21:45:56.367Z,13.44
2022-08-05T21:48:22.495Z,13.41
2022-08-05T21:50:56.133Z,13.38
2022-08-05T21:53:28.780Z,13.36
2022-08-05T21:56:06.227Z,13.30
2022-08-05T21:58:57.112Z,13.26
2022-08-05T22:01:29.229Z,13.26
2022-08-05T22:04:06.949Z,13.23
2022-08-05T22:06:50.469Z,13.21
2022-08-05T22:09:22.371Z,13.16
2022-08-05T22:11:54.711Z,13.13
2022-08-05T22:14:35.093Z,13.10
2022-08-05T22:17:09.254Z,13.08
2022-08-05T22:20:03.576Z,13.03
2022-08-05T22:22:53.206Z,12.95
2022-08-05T22:26:09.753Z,12.95
2022-08-05T22:28:36.409Z,12.90
2022-08-05T22:31:11.236Z,12.88
2022-08-05T22:33:56.945Z,12.86
2022-08-05T22:36:29.487Z,12.74
2022-08-05T22:39:09.565Z,12.77
2022-08-05T22:42:09.626Z,12.74
2022-08-05T22:44:34.798Z,12.70
2022-08-05T22:47:06.556Z,12.66
2022-08-05T22:50:19.594Z,12.59
2022-08-05T22:52:32.627Z,12.59
2022-08-05T22:55:19.499Z,12.56
2022-08-05T22:57:53.132Z,12.54
2022-08-05T23:00:24.448Z,12.48
2022-08-05T23:02:58.162Z,12.42
2022-08-05T23:05:29.556Z,12.39
2022-08-05T23:08:07.255Z,12.33
2022-08-05T23:10:43.207Z,12.34
2022-08-05T23:13:14.542Z,12.29
2022-08-05T23:15:46.022Z,12.29
2022-08-05T23:18:22.997Z,12.27
2022-08-05T23:20:54.368Z,12.25
2022-08-05T23:23:25.689Z,12.23
2022-08-05T23:26:01.297Z,12.18
2022-08-05T23:28:32.806Z,12.19
2022-08-05T23:31:16.542Z,12.18
2022-08-05T23:34:05.175Z,12.08
2022-08-05T23:36:39.826Z,12.12
2022-08-05T23:39:31.891Z,12.09
2022-08-05T23:42:03.953Z,12.07
2022-08-05T23:44:39.996Z,12.04
2022-08-05T23:47:16.114Z,12.01
2022-08-05T23:49:47.481Z,12.00
2022-08-05T23:52:32.057Z,11.96
2022-08-05T23:55:09.613Z,11.95
2022-08-05T23:57:42.240Z,11.90
